Botsford, Connecticut
Current Conditions -  °F | °C
As of 10:55 PM on Saturday 25 Oct 2014 (Local Time) from KOXC Reporting Station
Overcast Overcast  
Wind Chill: 57°   Ceiling: 5500
Heat Index: 57°   Visibility: 10mi
Dew Point: 43°   Wind: 5mph
Humidity: 59%   Direction: 320°NW
Pressure: 29.57"   Gusts: NA
Location:  41.37°N, 73.26°W
Report Text: KOXC 260255Z 32004KT 10SM BKN055 OVC070 14/06 A2957 RMK AO1 57014
Loading
Personal Weather Stations






























Interactive Weather Map
Tropical Storm Tracking
New forecast layout! Learn more

10-Day Weather Forecast

Advertisements
Track Severe Weather on mobile